Time;durP1;ratioP1;P1;durP2;ratioP2;P2;SDS_P1;SDS_P2;PMS_P1;PMS_P2;Temp;Humidity;BMP_temperature;BMP_pressure;BME280_temperature;BME280_humidity;BME280_pressure;Samples;Min_cycle;Max_cycle;Signal;HPM_P1;HPM_P2
2022/01/30 00:01:18;;;;;;;1.53;1.40;;;;;;;8.05;70.71;98428.28;8417722;28;20549;-83
2022/01/30 00:05:22;;;;;;;2.37;1.60;;;;;;;8.21;70.25;98408.94;8418609;28;20234;-82
2022/01/30 00:09:25;;;;;;;1.77;1.47;;;;;;;8.29;69.51;98422.47;8418229;28;20237;-82
2022/01/30 00:13:30;;;;;;;1.77;1.37;;;;;;;7.96;70.56;98414.75;8418247;28;20226;-83
2022/01/30 00:17:39;;;;;;;1.90;1.10;;;;;;;7.91;70.50;98419.19;8417515;28;20230;-82
2022/01/30 00:21:46;;;;;;;1.77;1.33;;;;;;;8.14;69.53;98413.41;8417968;28;20235;-82
2022/01/30 00:25:51;;;;;;;1.27;1.17;;;;;;;8.09;70.10;98420.44;8417984;28;20237;-82
2022/01/30 00:29:56;;;;;;;1.30;1.13;;;;;;;8.19;69.57;98415.88;8417841;28;20233;-83
2022/01/30 00:34:00;;;;;;;1.53;1.27;;;;;;;8.17;69.22;98420.25;8417158;28;20233;-81
2022/01/30 00:38:04;;;;;;;2.57;1.20;;;;;;;8.08;69.34;98423.91;8417721;28;20385;-82
2022/01/30 00:42:10;;;;;;;2.57;1.33;;;;;;;8.03;69.24;98415.44;8417654;28;20234;-82
2022/01/30 00:46:15;;;;;;;1.57;1.10;;;;;;;8.04;69.29;98411.97;8417411;28;20247;-82
2022/01/30 00:50:18;;;;;;;2.80;1.30;;;;;;;8.25;69.21;98425.19;8417017;28;20241;-82
2022/01/30 00:54:21;;;;;;;2.80;1.20;;;;;;;8.07;69.53;98424.78;8416061;28;20233;-83
2022/01/30 00:58:24;;;;;;;3.10;1.37;;;;;;;8.21;69.21;98452.81;8417709;28;20233;-83
2022/01/30 01:02:29;;;;;;;3.30;1.10;;;;;;;8.14;69.08;98444.38;8416970;28;20237;-84
2022/01/30 01:06:32;;;;;;;1.93;1.00;;;;;;;8.37;68.81;98432.56;8416088;28;20222;-82
2022/01/30 01:10:40;;;;;;;3.07;1.27;;;;;;;8.25;68.88;98427.78;8416501;28;20230;-83
2022/01/30 01:23:38;;;;;;;2.27;1.20;;;;;;;8.19;67.92;98413.31;8368559;28;20230;-82
2022/01/30 01:27:41;;;;;;;3.03;1.33;;;;;;;8.20;67.16;98428.72;8416016;28;20234;-83
2022/01/30 01:31:44;;;;;;;4.60;1.60;;;;;;;8.18;67.44;98420.16;8415955;28;20231;-83
2022/01/30 01:35:49;;;;;;;4.33;1.70;;;;;;;8.16;67.03;98419.38;8415847;28;20396;-82
2022/01/30 01:39:52;;;;;;;4.03;1.57;;;;;;;8.33;66.70;98411.16;8415336;28;20227;-82
2022/01/30 01:43:55;;;;;;;3.63;1.60;;;;;;;8.12;66.55;98410.03;8416222;28;20237;-83
2022/01/30 01:48:02;;;;;;;4.93;1.87;;;;;;;8.20;66.47;98409.81;8417360;28;20239;-82
2022/01/30 01:52:21;;;;;;;7.17;1.90;;;;;;;8.23;65.87;98405.41;8417085;28;20206;-82
2022/01/30 01:56:26;;;;;;;5.20;1.87;;;;;;;8.20;66.28;98405.50;8417238;28;20199;-82
2022/01/30 02:00:29;;;;;;;6.53;2.30;;;;;;;8.21;66.41;98402.03;8415019;28;20231;-83
2022/01/30 02:04:32;;;;;;;8.97;2.70;;;;;;;8.16;66.15;98397.91;8414124;28;20225;-82
2022/01/30 02:08:40;;;;;;;5.60;1.97;;;;;;;8.34;65.77;98393.94;8414898;28;20227;-83
2022/01/30 02:12:48;;;;;;;7.27;2.30;;;;;;;8.24;66.41;98393.34;8414547;28;20238;-82
2022/01/30 02:25:39;;;;;;;8.33;2.60;;;;;;;8.19;65.49;98378.03;8414030;28;20232;-81
2022/01/30 02:29:42;;;;;;;9.40;2.90;;;;;;;8.21;64.94;98399.47;8414028;28;20239;-81
2022/01/30 02:33:45;;;;;;;11.57;2.97;;;;;;;8.04;65.65;98393.91;8414140;28;20242;-81
2022/01/30 02:37:52;;;;;;;9.30;2.77;;;;;;;8.02;64.65;98399.13;8414628;28;20230;-81
2022/01/30 02:41:56;;;;;;;14.13;2.90;;;;;;;8.20;64.86;98408.06;8413913;28;20387;-81
2022/01/30 02:46:10;;;;;;;8.63;2.60;;;;;;;8.09;65.48;98411.84;8413736;28;20245;-81
2022/01/30 02:50:19;;;;;;;9.50;2.60;;;;;;;8.31;64.40;98420.69;8414196;28;20234;-81
2022/01/30 02:54:24;;;;;;;10.97;2.90;;;;;;;8.15;64.80;98440.06;8414151;28;20234;-82
2022/01/30 02:58:28;;;;;;;11.93;3.33;;;;;;;8.11;64.42;98429.00;8413485;28;20226;-81
2022/01/30 03:02:31;;;;;;;11.70;3.30;;;;;;;8.36;63.85;98426.56;8412575;28;20234;-81
2022/01/30 03:06:34;;;;;;;9.30;3.37;;;;;;;8.17;63.53;98425.41;8413499;28;20345;-81
2022/01/30 03:10:37;;;;;;;11.53;3.30;;;;;;;8.37;63.39;98417.09;8413484;28;20238;-81
2022/01/30 03:14:42;;;;;;;6.77;2.60;;;;;;;8.34;63.82;98425.78;8413160;28;20234;-81
2022/01/30 03:18:45;;;;;;;10.30;2.90;;;;;;;8.28;64.29;98425.94;8416043;28;20231;-81
2022/01/30 03:22:48;;;;;;;8.83;3.77;;;;;;;8.28;63.79;98425.94;8419846;28;20279;-80
2022/01/30 03:26:51;;;;;;;12.83;3.20;;;;;;;8.23;63.68;98426.06;8420046;28;20431;-80
2022/01/30 03:31:00;;;;;;;11.73;3.50;;;;;;;8.51;63.05;98435.66;8419831;28;20514;-81
2022/01/30 03:35:04;;;;;;;13.80;3.40;;;;;;;8.27;64.37;98439.72;8419766;28;20227;-81
2022/01/30 03:39:07;;;;;;;11.90;3.07;;;;;;;8.31;63.20;98446.50;8419284;28;20234;-81
2022/01/30 03:43:10;;;;;;;12.17;3.07;;;;;;;8.48;62.58;98448.63;8419236;28;20230;-81
2022/01/30 03:47:14;;;;;;;11.07;3.10;;;;;;;8.53;62.88;98457.09;8420272;28;20245;-81
2022/01/30 03:51:18;;;;;;;12.00;2.90;;;;;;;8.47;62.70;98439.19;8426380;28;20271;-81
2022/01/30 03:55:21;;;;;;;12.10;3.27;;;;;;;8.47;62.46;98444.34;8423192;28;20231;-81
2022/01/30 03:59:24;;;;;;;10.73;3.40;;;;;;;8.50;61.95;98446.84;8445258;28;20248;-81
2022/01/30 04:03:29;;;;;;;11.77;3.20;;;;;;;8.67;61.75;98461.03;8427409;28;20234;-82
2022/01/30 04:07:32;;;;;;;14.90;2.90;;;;;;;8.61;62.23;98462.88;8417997;28;20229;-82
2022/01/30 04:11:35;;;;;;;10.77;3.23;;;;;;;8.64;62.65;98456.78;8418760;28;20230;-82
2022/01/30 04:15:39;;;;;;;13.97;3.57;;;;;;;8.62;63.00;98466.31;8418366;28;20557;-82
2022/01/30 04:19:44;;;;;;;13.73;3.17;;;;;;;8.63;62.55;98454.28;8418293;28;20238;-81
2022/01/30 04:23:47;;;;;;;12.17;3.33;;;;;;;8.66;62.86;98455.00;8417979;28;20231;-82
2022/01/30 04:27:50;;;;;;;11.33;3.17;;;;;;;8.47;62.63;98454.69;8417998;28;20238;-82
2022/01/30 04:31:54;;;;;;;14.53;3.30;;;;;;;8.31;61.97;98454.22;8416061;28;20234;-82
2022/01/30 04:36:04;;;;;;;16.60;3.40;;;;;;;8.34;60.94;98453.28;8417293;28;20227;-81
2022/01/30 04:40:41;;;;;;;13.97;3.70;;;;;;;8.39;60.16;98460.03;8417570;28;20522;-82
2022/01/30 04:53:40;;;;;;;15.00;4.00;;;;;;;8.22;56.36;98475.13;8449483;28;20226;-80
2022/01/30 05:02:11;;;;;;;12.73;3.67;;;;;;;7.90;54.84;98476.81;8446783;28;20230;-81
2022/01/30 05:06:17;;;;;;;14.17;3.83;;;;;;;8.04;54.28;98473.88;8450262;28;20276;-81
2022/01/30 05:10:22;;;;;;;15.20;4.27;;;;;;;7.87;54.05;98470.91;8450185;28;20409;-81
2022/01/30 05:14:32;;;;;;;13.60;3.80;;;;;;;8.13;53.55;98491.72;8450104;28;20237;-82
2022/01/30 05:18:35;;;;;;;10.63;3.47;;;;;;;8.08;53.29;98506.44;8449740;28;20536;-81
2022/01/30 05:22:39;;;;;;;16.70;4.53;;;;;;;8.11;52.92;98510.69;8449822;28;20433;-81
2022/01/30 05:26:47;;;;;;;15.60;3.60;;;;;;;7.99;52.66;98515.25;8449629;28;20237;-81
2022/01/30 05:30:51;;;;;;;17.57;4.23;;;;;;;8.02;52.29;98524.66;8449309;28;20238;-81
2022/01/30 05:34:55;;;;;;;14.33;3.87;;;;;;;7.89;52.08;98531.84;8449424;28;20240;-81
2022/01/30 05:39:00;;;;;;;17.43;4.23;;;;;;;7.80;51.26;98511.44;8449685;28;20233;-81
2022/01/30 05:43:05;;;;;;;15.57;3.97;;;;;;;7.80;50.97;98529.50;8448189;28;20555;-81
2022/01/30 05:47:11;;;;;;;14.27;3.90;;;;;;;7.74;49.69;98538.22;8448452;28;20241;-83
2022/01/30 05:51:14;;;;;;;14.43;4.10;;;;;;;7.70;49.95;98553.81;8420824;28;20230;-83
2022/01/30 05:55:17;;;;;;;14.80;3.87;;;;;;;7.81;49.38;98557.81;8415203;28;20231;-83
2022/01/30 05:59:21;;;;;;;15.70;3.87;;;;;;;7.73;48.55;98566.63;8415164;28;20230;-82
2022/01/30 06:03:26;;;;;;;15.57;4.10;;;;;;;7.77;49.03;98571.69;8414638;28;20230;-82
2022/01/30 06:07:31;;;;;;;18.53;4.20;;;;;;;7.77;48.78;98558.78;8414672;28;20226;-82
2022/01/30 06:11:34;;;;;;;14.33;3.47;;;;;;;7.79;49.12;98580.22;8415638;28;20230;-81
2022/01/30 06:15:38;;;;;;;12.97;3.83;;;;;;;7.77;48.18;98586.31;8397172;28;20223;-82
2022/01/30 06:19:42;;;;;;;14.40;4.17;;;;;;;7.94;48.42;98583.31;8397018;28;20538;-82
2022/01/30 06:23:45;;;;;;;14.57;4.03;;;;;;;8.03;48.45;98596.00;8396916;28;20241;-81
2022/01/30 06:27:48;;;;;;;15.27;3.97;;;;;;;7.73;48.63;98577.78;8415310;28;20238;-80
2022/01/30 06:31:53;;;;;;;18.07;4.00;;;;;;;7.87;48.97;98577.47;8419828;28;20435;-80
2022/01/30 06:35:56;;;;;;;14.47;4.23;;;;;;;7.69;48.73;98588.19;8430084;28;20237;-80
2022/01/30 06:39:59;;;;;;;19.40;4.17;;;;;;;7.40;49.37;98598.25;8430094;28;20253;-81
2022/01/30 06:44:02;;;;;;;16.57;4.50;;;;;;;7.76;49.39;98606.06;8434654;28;20222;-80
2022/01/30 06:48:07;;;;;;;15.90;4.37;;;;;;;7.63;49.13;98602.94;8428167;28;20537;-81
2022/01/30 06:52:11;;;;;;;16.70;4.53;;;;;;;7.57;49.68;98585.00;8433226;28;20233;-82
2022/01/30 06:56:14;;;;;;;14.30;4.43;;;;;;;7.62;49.91;98587.50;8437782;28;20234;-82
2022/01/30 07:00:18;;;;;;;20.33;5.93;;;;;;;7.51;49.59;98579.16;8445217;28;20221;-81
2022/01/30 07:04:22;;;;;;;17.50;4.70;;;;;;;7.44;49.37;98581.88;8449543;28;20233;-81
2022/01/30 07:08:25;;;;;;;16.40;4.50;;;;;;;7.43;49.14;98581.91;8443431;28;20537;-82
2022/01/30 07:12:28;;;;;;;18.07;4.83;;;;;;;7.28;49.30;98595.97;8442728;28;20229;-81
2022/01/30 07:16:31;;;;;;;17.23;4.67;;;;;;;7.48;49.00;98592.09;8426750;28;20227;-81
2022/01/30 07:20:36;;;;;;;18.40;4.60;;;;;;;7.19;48.68;98585.84;8419786;28;20238;-81
2022/01/30 07:24:39;;;;;;;19.07;4.80;;;;;;;7.58;48.50;98588.47;8426818;28;20230;-81
2022/01/30 07:28:42;;;;;;;18.67;4.50;;;;;;;7.24;48.71;98577.13;8453423;28;20237;-81
2022/01/30 07:32:45;;;;;;;18.93;4.73;;;;;;;7.19;48.21;98565.22;8452930;28;20434;-81
2022/01/30 07:36:51;;;;;;;22.70;5.00;;;;;;;7.22;48.60;98555.72;8452647;28;20234;-81
2022/01/30 07:40:54;;;;;;;18.00;4.43;;;;;;;7.36;48.29;98568.28;8426603;28;20222;-81
2022/01/30 07:44:57;;;;;;;15.13;4.33;;;;;;;7.35;47.84;98576.91;8441554;28;20238;-81
2022/01/30 07:49:00;;;;;;;17.90;4.57;;;;;;;7.35;47.93;98581.19;8433229;28;20254;-81
2022/01/30 07:53:04;;;;;;;16.87;4.80;;;;;;;7.47;47.48;98585.28;8432435;28;20230;-80
2022/01/30 07:57:07;;;;;;;14.87;4.30;;;;;;;7.48;46.99;98597.25;8422658;28;20230;-80
2022/01/30 08:01:10;;;;;;;20.53;4.83;;;;;;;7.48;47.92;98594.69;8434389;28;20551;-81
2022/01/30 08:05:14;;;;;;;19.07;4.70;;;;;;;7.80;46.90;98594.78;8433784;28;20285;-80
2022/01/30 08:09:19;;;;;;;21.87;4.80;;;;;;;8.82;44.34;98581.13;8437507;28;20226;-81
2022/01/30 08:13:23;;;;;;;20.33;5.40;;;;;;;9.38;43.36;98586.41;8432053;28;20294;-80
2022/01/30 08:17:26;;;;;;;17.63;4.67;;;;;;;9.96;42.81;98587.22;8430365;28;20222;-81
2022/01/30 08:21:28;;;;;;;15.37;4.73;;;;;;;9.84;42.04;98597.94;8437895;28;20233;-81
2022/01/30 08:25:34;;;;;;;17.53;4.60;;;;;;;10.44;41.00;98601.22;8435165;28;20430;-81
2022/01/30 08:29:38;;;;;;;12.13;2.80;;;;;;;11.42;62.85;98619.34;8433345;28;20226;-81
2022/01/30 08:33:41;;;;;;;14.40;4.80;;;;;;;11.44;39.02;98633.97;8433795;28;20232;-82
2022/01/30 08:37:44;;;;;;;16.27;4.73;;;;;;;11.03;39.31;98643.25;8433933;28;20242;-80
2022/01/30 08:41:49;;;;;;;20.77;5.10;;;;;;;10.63;40.43;98640.28;8432732;28;20567;-80
2022/01/30 08:45:53;;;;;;;15.03;4.90;;;;;;;11.19;40.86;98633.16;8430791;28;20241;-82
2022/01/30 08:49:56;;;;;;;15.37;4.20;;;;;;;11.62;39.09;98636.78;8428559;28;20290;-82
2022/01/30 08:53:59;;;;;;;15.83;4.47;;;;;;;11.64;38.92;98647.94;8422686;28;20234;-83
2022/01/30 08:58:07;;;;;;;16.93;4.93;;;;;;;11.73;37.73;98653.63;8416917;28;20234;-83
2022/01/30 09:02:11;;;;;;;15.73;4.17;;;;;;;11.20;39.49;98674.59;8416842;28;20296;-82
2022/01/30 09:06:14;;;;;;;18.50;4.50;;;;;;;10.37;40.91;98674.81;8416754;28;20226;-82
2022/01/30 09:10:17;;;;;;;18.20;5.77;;;;;;;9.66;42.85;98695.03;8416609;28;20231;-83
2022/01/30 09:14:24;;;;;;;20.43;7.00;;;;;;;9.95;43.12;98714.03;8416184;28;20271;-83
2022/01/30 09:18:27;;;;;;;18.03;4.73;;;;;;;9.88;43.21;98720.28;8415126;28;20254;-82
2022/01/30 09:22:30;;;;;;;16.07;4.63;;;;;;;9.44;44.28;98719.81;8418504;28;20432;-82
2022/01/30 09:26:33;;;;;;;15.90;4.97;;;;;;;9.68;44.32;98734.63;8415044;28;20226;-82
2022/01/30 09:30:37;;;;;;;21.27;5.00;;;;;;;9.47;44.24;98741.25;8415857;28;20453;-82
2022/01/30 09:34:40;;;;;;;13.37;4.13;;;;;;;9.24;45.01;98748.81;8415754;28;20241;-82
2022/01/30 09:38:45;;;;;;;13.77;4.50;;;;;;;8.93;45.79;98755.59;8415199;28;20231;-82
2022/01/30 09:42:50;;;;;;;15.90;4.03;;;;;;;8.85;46.27;98751.50;8415405;28;20235;-83
2022/01/30 09:46:54;;;;;;;19.13;5.90;;;;;;;8.98;45.81;98738.22;8414974;28;20230;-83
2022/01/30 09:50:59;;;;;;;16.57;5.13;;;;;;;8.76;45.54;98719.88;8414909;28;20231;-82
2022/01/30 09:55:02;;;;;;;15.53;4.83;;;;;;;8.82;44.87;98734.34;8414961;28;20238;-82
2022/01/30 09:59:05;;;;;;;16.23;5.33;;;;;;;8.85;44.27;98731.69;8415077;28;20230;-82
2022/01/30 10:03:09;;;;;;;18.10;4.43;;;;;;;8.71;44.75;98721.69;8414805;28;20253;-82
2022/01/30 10:07:15;;;;;;;13.30;4.77;;;;;;;8.95;44.24;98722.00;8414847;28;20226;-82
2022/01/30 10:11:31;;;;;;;12.30;3.80;;;;;;;8.65;44.34;98715.84;8414530;28;20230;-82
2022/01/30 10:15:50;;;;;;;16.20;3.87;;;;;;;8.39;44.82;98730.19;8414567;28;20868;-82
2022/01/30 10:20:02;;;;;;;12.20;3.77;;;;;;;9.11;43.92;98737.94;8414692;28;20333;-82
2022/01/30 10:24:22;;;;;;;13.97;4.07;;;;;;;8.92;44.66;98745.31;8414449;28;20231;-82
2022/01/30 10:28:28;;;;;;;13.77;3.60;;;;;;;8.99;44.94;98750.28;8434172;28;20256;-82
2022/01/30 10:32:31;;;;;;;14.60;4.27;;;;;;;9.05;45.12;98757.03;8448157;28;20401;-82
2022/01/30 10:36:37;;;;;;;14.10;4.27;;;;;;;8.96;45.49;98772.75;8447286;28;20225;-82
2022/01/30 10:40:52;;;;;;;10.97;3.53;;;;;;;8.78;46.11;98774.91;8447280;28;20245;-82
2022/01/30 10:44:55;;;;;;;13.80;4.07;;;;;;;8.56;47.06;98787.47;8447234;28;20249;-83
2022/01/30 10:49:00;;;;;;;16.67;4.13;;;;;;;8.48;47.35;98780.78;8437983;28;20238;-83
2022/01/30 10:53:05;;;;;;;12.47;3.77;;;;;;;8.61;46.89;98782.22;8413946;28;20236;-83
2022/01/30 10:57:10;;;;;;;18.07;4.47;;;;;;;8.80;46.68;98800.69;8413822;28;20234;-83
2022/01/30 11:01:24;;;;;;;12.20;3.97;;;;;;;8.56;47.71;98802.94;8413743;28;20226;-84
2022/01/30 11:05:27;;;;;;;12.57;3.60;;;;;;;8.67;47.84;98807.88;8413612;28;20231;-84
2022/01/30 11:09:36;;;;;;;16.93;4.00;;;;;;;8.94;47.34;98819.28;8413646;28;20226;-83
2022/01/30 11:14:14;;;;;;;12.60;3.50;;;;;;;8.94;46.29;98810.69;8439456;28;20230;-83
2022/01/30 11:18:18;;;;;;;15.40;4.27;;;;;;;8.65;45.67;98817.41;8446935;28;20234;-82
2022/01/30 11:22:24;;;;;;;14.80;3.77;;;;;;;8.53;46.09;98833.16;8425429;28;20787;-82
2022/01/30 11:26:29;;;;;;;17.23;4.23;;;;;;;8.28;46.17;98831.09;8447729;28;20233;-79
2022/01/30 11:30:34;;;;;;;16.33;5.43;;;;;;;8.45;45.52;98811.81;8446280;28;20230;-81
2022/01/30 11:34:39;;;;;;;15.80;5.90;;;;;;;8.48;46.13;98816.94;8446873;28;20230;-80
2022/01/30 11:38:42;;;;;;;14.30;4.27;;;;;;;8.39;46.05;98834.28;8427007;28;20556;-82
2022/01/30 11:42:49;;;;;;;15.50;4.07;;;;;;;8.64;45.54;98817.44;8437908;28;20226;-81
2022/01/30 11:47:20;;;;;;;13.47;4.10;;;;;;;8.71;45.28;98803.50;8452496;28;20297;-81
2022/01/30 11:51:24;;;;;;;13.60;4.53;;;;;;;8.64;45.78;98783.84;8426602;28;20226;-81
2022/01/30 11:55:49;;;;;;;17.03;4.40;;;;;;;8.49;45.45;98788.50;8436312;28;20234;-81
2022/01/30 11:59:55;;;;;;;14.73;4.63;;;;;;;8.66;45.07;98797.59;8450394;28;20222;-81
2022/01/30 12:04:00;;;;;;;17.27;5.17;;;;;;;8.84;45.11;98780.81;8452199;28;20253;-84
2022/01/30 12:08:03;;;;;;;15.30;4.20;;;;;;;8.64;45.44;98789.88;8452359;28;20226;-84
2022/01/30 12:12:08;;;;;;;15.60;4.60;;;;;;;8.77;44.38;98793.00;8454468;28;20236;-83
2022/01/30 12:16:46;;;;;;;20.17;4.33;;;;;;;8.75;45.31;98790.47;8451663;28;20249;-83
2022/01/30 12:21:01;;;;;;;14.53;4.20;;;;;;;8.85;44.77;98782.50;8448430;28;20219;-83
2022/01/30 12:25:32;;;;;;;12.87;4.40;;;;;;;9.23;44.71;98781.53;8412184;28;20234;-85
2022/01/30 12:29:35;;;;;;;19.13;4.20;;;;;;;9.26;44.08;98770.28;8402872;28;20227;-84
2022/01/30 12:33:46;;;;;;;19.87;5.20;;;;;;;8.81;44.60;98776.56;8433715;28;20246;-83
2022/01/30 12:37:49;;;;;;;15.23;4.57;;;;;;;8.66;45.23;98785.50;8432106;28;20303;-83
2022/01/30 12:41:53;;;;;;;19.17;4.67;;;;;;;8.64;44.93;98789.03;8433627;28;20289;-81
2022/01/30 12:46:05;;;;;;;16.40;5.03;;;;;;;8.63;45.12;98784.75;8434583;28;20242;-81
2022/01/30 12:50:10;;;;;;;19.47;4.63;;;;;;;9.14;45.15;98779.22;8428599;28;20530;-82
2022/01/30 12:54:13;;;;;;;16.63;5.53;;;;;;;9.63;42.94;98784.81;8433085;28;20226;-82
2022/01/30 12:58:17;;;;;;;16.13;4.70;;;;;;;9.39;42.51;98787.16;8430457;28;20234;-83
2022/01/30 13:02:21;;;;;;;17.93;5.50;;;;;;;9.53;42.28;98776.44;8433897;28;20283;-83
2022/01/30 13:06:36;;;;;;;16.57;5.63;;;;;;;8.96;42.49;98780.50;8450124;28;20463;-82
2022/01/30 13:10:39;;;;;;;17.60;4.43;;;;;;;9.48;41.66;98768.81;8431144;28;20222;-82
2022/01/30 13:14:42;;;;;;;19.53;5.00;;;;;;;9.61;41.55;98768.47;8416572;28;20241;-82
2022/01/30 13:18:45;;;;;;;16.90;4.43;;;;;;;9.76;40.06;98768.88;8416565;28;20234;-84
2022/01/30 13:22:51;;;;;;;17.00;4.93;;;;;;;9.88;39.47;98761.66;8416145;28;20238;-83
2022/01/30 13:26:57;;;;;;;15.30;4.37;;;;;;;9.86;40.20;98756.56;8416470;28;20290;-83
2022/01/30 13:31:12;;;;;;;19.53;4.80;;;;;;;9.08;40.76;98758.66;8416420;28;20231;-83
2022/01/30 13:35:16;;;;;;;14.53;4.23;;;;;;;9.12;41.39;98757.69;8417604;28;20230;-83
2022/01/30 13:39:27;;;;;;;17.00;4.60;;;;;;;8.57;42.24;98762.50;8432378;28;20237;-83
2022/01/30 13:43:35;;;;;;;15.00;4.90;;;;;;;8.80;41.50;98762.81;8430727;28;20226;-84
2022/01/30 13:47:38;;;;;;;18.13;5.00;;;;;;;8.75;41.00;98751.72;8437494;28;20254;-85
2022/01/30 13:51:41;;;;;;;16.57;4.60;;;;;;;8.83;40.97;98766.19;8414797;28;20514;-86
2022/01/30 13:56:00;;;;;;;15.77;4.90;;;;;;;8.70;41.14;98769.09;8415097;28;20245;-83
2022/01/30 14:00:09;;;;;;;14.33;4.10;;;;;;;8.93;40.60;98768.53;8416326;28;20226;-87
2022/01/30 14:04:12;;;;;;;20.30;5.57;;;;;;;9.41;40.30;98779.38;8427940;28;20235;-83
2022/01/30 14:08:18;;;;;;;16.57;4.93;;;;;;;9.28;40.58;98782.25;8417886;28;20233;-83
2022/01/30 14:12:28;;;;;;;15.90;4.70;;;;;;;9.05;39.39;98763.94;8430496;28;20225;-82
2022/01/30 14:16:35;;;;;;;16.30;5.33;;;;;;;9.58;40.08;98772.84;8445998;28;20226;-82
2022/01/30 14:20:39;;;;;;;16.17;4.77;;;;;;;9.70;39.60;98768.22;8430167;28;20280;-84
2022/01/30 14:24:49;;;;;;;16.97;5.00;;;;;;;9.16;39.65;98764.50;8419473;28;20540;-85
2022/01/30 14:29:20;;;;;;;18.17;4.83;;;;;;;9.09;40.19;98748.31;8428599;28;20232;-85
2022/01/30 14:33:24;;;;;;;15.77;5.30;;;;;;;8.97;40.48;98762.38;8414800;28;20291;-85
2022/01/30 14:37:28;;;;;;;19.03;4.77;;;;;;;8.88;41.37;98751.44;8414456;28;20226;-84
2022/01/30 14:41:32;;;;;;;19.90;5.07;;;;;;;9.22;40.87;98760.91;8416035;28;20218;-83
2022/01/30 14:45:38;;;;;;;16.43;4.70;;;;;;;9.22;40.56;98771.25;8434736;28;20226;-83
2022/01/30 14:49:43;;;;;;;17.20;4.90;;;;;;;8.89;41.06;98760.88;8423441;28;20239;-83
2022/01/30 14:53:46;;;;;;;17.63;4.73;;;;;;;9.15;40.84;98768.81;8429404;28;20246;-85
2022/01/30 14:57:51;;;;;;;19.30;5.10;;;;;;;9.17;40.37;98776.53;8447688;28;20257;-84
2022/01/30 15:01:57;;;;;;;18.60;5.17;;;;;;;9.05;38.80;98759.59;8447469;28;20235;-84
2022/01/30 15:06:01;;;;;;;20.03;6.27;;;;;;;9.22;39.80;98776.44;8430379;28;20238;-84
2022/01/30 15:10:06;;;;;;;14.60;5.00;;;;;;;9.37;38.73;98776.03;8421773;28;20226;-84
2022/01/30 15:14:10;;;;;;;19.70;5.60;;;;;;;8.77;39.47;98775.78;8430467;28;20229;-84
2022/01/30 15:18:20;;;;;;;18.67;5.87;;;;;;;9.35;40.95;98776.06;8449814;28;20267;-84
2022/01/30 15:22:24;;;;;;;17.73;5.67;;;;;;;9.00;40.50;98772.66;8453983;28;20233;-80
2022/01/30 15:26:27;;;;;;;19.20;5.40;;;;;;;8.82;40.92;98770.53;8453629;28;20237;-80
2022/01/30 15:30:30;;;;;;;18.33;5.43;;;;;;;8.67;41.12;98774.31;8453761;28;20422;-80
2022/01/30 15:34:34;;;;;;;17.97;5.90;;;;;;;8.58;40.62;98777.09;8449322;28;20222;-82
2022/01/30 15:38:37;;;;;;;23.07;6.10;;;;;;;8.58;41.08;98784.84;8437371;28;20229;-81
2022/01/30 15:42:40;;;;;;;27.07;6.90;;;;;;;8.70;40.83;98794.03;8436364;28;20422;-81
2022/01/30 15:51:05;;;;;;;23.37;5.57;;;;;;;8.57;40.83;98785.75;8419504;28;20234;-84
2022/01/30 15:55:10;;;;;;;20.70;5.80;;;;;;;8.41;41.17;98778.34;8417982;28;20234;-85
2022/01/30 15:59:13;;;;;;;19.27;5.50;;;;;;;8.47;41.16;98773.91;8419447;28;20238;-84
2022/01/30 16:03:16;;;;;;;19.93;5.77;;;;;;;8.22;41.15;98777.00;8419718;28;20234;-84
2022/01/30 16:07:21;;;;;;;20.70;5.93;;;;;;;8.48;40.73;98771.31;8418361;28;20272;-84
2022/01/30 16:12:00;;;;;;;18.47;5.47;;;;;;;8.29;41.24;98768.25;8433247;28;20240;-84
2022/01/30 16:15:59;;;;;;;26.13;6.43;;;;;;;8.06;41.91;98768.78;8435417;28;20226;-84
2022/01/30 16:20:03;;;;;;;23.10;7.37;;;;;;;8.32;41.90;98759.59;8452386;28;20233;-84
2022/01/30 16:24:08;;;;;;;24.87;8.23;;;;;;;8.27;41.67;98759.72;8451360;28;20399;-83
2022/01/30 16:28:11;;;;;;;21.93;8.23;;;;;;;8.26;41.75;98762.31;8452103;28;20226;-83
2022/01/30 16:32:14;;;;;;;25.10;7.73;;;;;;;8.13;42.21;98779.78;8446691;28;20223;-83
2022/01/30 16:36:17;;;;;;;25.97;8.60;;;;;;;8.28;42.18;98761.41;8418675;28;20230;-83
2022/01/30 16:40:22;;;;;;;22.23;8.47;;;;;;;8.25;42.64;98786.44;8388902;28;20237;-83
2022/01/30 16:44:27;;;;;;;23.77;7.53;;;;;;;8.35;42.61;98775.03;8418841;28;20239;-83
2022/01/30 16:48:32;;;;;;;20.00;7.33;;;;;;;8.31;42.46;98766.50;8418573;28;20222;-84
2022/01/30 16:52:35;;;;;;;24.50;9.03;;;;;;;8.39;42.86;98771.47;8417441;28;20222;-84
2022/01/30 16:56:39;;;;;;;27.50;9.33;;;;;;;8.17;43.21;98777.13;8417083;28;20238;-84
2022/01/30 17:00:43;;;;;;;27.03;8.37;;;;;;;8.17;43.32;98766.81;8426704;28;20247;-84
2022/01/30 17:04:46;;;;;;;30.23;8.40;;;;;;;8.11;43.70;98769.53;8417656;28;20231;-85
2022/01/30 17:08:51;;;;;;;22.13;6.13;;;;;;;8.09;43.21;98775.59;8419073;28;20542;-84
2022/01/30 17:13:00;;;;;;;24.10;7.07;;;;;;;8.27;42.93;98785.50;8451147;28;20548;-83
2022/01/30 17:17:04;;;;;;;24.53;8.47;;;;;;;8.14;43.97;98776.34;8450665;28;20230;-84
2022/01/30 17:21:07;;;;;;;29.27;10.93;;;;;;;8.07;44.53;98773.03;8450633;28;20233;-84
2022/01/30 17:25:10;;;;;;;31.00;10.00;;;;;;;8.02;44.27;98762.81;8450359;28;20232;-84
2022/01/30 17:29:15;;;;;;;19.77;8.10;;;;;;;8.06;44.27;98766.19;8450325;28;20874;-84
2022/01/30 17:33:18;;;;;;;24.93;7.83;;;;;;;7.80;44.60;98756.41;8445111;28;20261;-83
2022/01/30 17:37:21;;;;;;;27.77;8.30;;;;;;;7.75;44.26;98747.91;8415308;28;20238;-83
2022/01/30 17:41:28;;;;;;;26.67;8.50;;;;;;;7.99;43.81;98756.88;8416635;28;20238;-84
2022/01/30 17:45:33;;;;;;;29.37;9.63;;;;;;;8.00;43.80;98763.75;8414502;28;20541;-84
2022/01/30 17:49:37;;;;;;;30.47;10.60;;;;;;;8.00;44.13;98768.91;8414980;28;20261;-84
2022/01/30 17:53:42;;;;;;;24.50;8.03;;;;;;;7.81;43.73;98781.34;8416069;28;20238;-84
2022/01/30 17:57:48;;;;;;;23.17;8.87;;;;;;;7.95;43.37;98779.31;8416358;28;20230;-83
2022/01/30 18:01:58;;;;;;;25.13;7.57;;;;;;;7.82;43.50;98781.31;8416208;28;20248;-84
2022/01/30 18:06:09;;;;;;;22.77;8.33;;;;;;;7.97;43.27;98766.38;8415913;28;20238;-83
2022/01/30 18:10:13;;;;;;;27.83;12.23;;;;;;;8.14;43.33;98766.88;8416114;28;20227;-80
2022/01/30 18:14:16;;;;;;;30.03;11.57;;;;;;;8.17;42.83;98774.56;8415596;28;20230;-82
2022/01/30 18:18:24;;;;;;;22.63;8.20;;;;;;;7.95;42.35;98787.03;8415652;28;20549;-82
2022/01/30 18:22:27;;;;;;;22.33;6.77;;;;;;;7.94;42.40;98780.19;8415481;28;20227;-82
2022/01/30 18:26:30;;;;;;;20.33;6.33;;;;;;;7.93;41.55;98772.50;8416061;28;20424;-82
2022/01/30 18:30:34;;;;;;;25.10;7.43;;;;;;;7.91;41.12;98759.63;8414365;28;20222;-81
2022/01/30 18:34:39;;;;;;;25.40;7.10;;;;;;;8.01;39.89;98748.25;8414961;28;20419;-81
2022/01/30 18:38:51;;;;;;;23.00;7.30;;;;;;;7.94;40.19;98745.78;8415039;28;20237;-82
2022/01/30 18:42:54;;;;;;;26.63;8.63;;;;;;;8.01;40.18;98745.66;8415044;28;20227;-83
2022/01/30 18:46:58;;;;;;;25.73;9.20;;;;;;;8.23;40.57;98746.03;8414693;28;20406;-84
2022/01/30 18:51:02;;;;;;;26.53;7.70;;;;;;;8.22;40.84;98740.88;8414794;28;20230;-84
2022/01/30 18:55:06;;;;;;;27.60;12.03;;;;;;;8.42;40.88;98753.38;8414781;28;20236;-81
2022/01/30 18:59:10;;;;;;;22.57;8.33;;;;;;;8.41;41.25;98744.81;8432422;28;20230;-83
2022/01/30 19:03:13;;;;;;;26.17;10.57;;;;;;;8.37;41.47;98737.13;8448017;28;20226;-82
2022/01/30 19:07:18;;;;;;;27.93;11.47;;;;;;;8.39;41.26;98725.03;8447765;28;20242;-82
2022/01/30 19:11:21;;;;;;;26.73;11.30;;;;;;;8.47;41.56;98711.97;8447387;28;20312;-82
2022/01/30 19:15:25;;;;;;;24.50;7.70;;;;;;;8.21;41.75;98716.81;8448407;28;20252;-82
2022/01/30 19:19:28;;;;;;;28.47;9.37;;;;;;;8.19;41.88;98707.44;8448384;28;20332;-82
2022/01/30 19:23:33;;;;;;;26.07;8.83;;;;;;;8.31;42.31;98704.56;8447948;28;20241;-82
2022/01/30 19:27:37;;;;;;;30.27;8.73;;;;;;;8.26;42.41;98708.97;8447749;28;20259;-83
2022/01/30 19:31:40;;;;;;;26.90;8.67;;;;;;;8.21;42.24;98705.66;8437360;28;20530;-82
2022/01/30 19:35:45;;;;;;;34.27;10.77;;;;;;;8.22;42.35;98702.19;8422581;28;20235;-83
2022/01/30 19:39:51;;;;;;;29.03;6.80;;;;;;;10.82;63.70;98697.50;8413321;28;20231;-82
2022/01/30 19:43:54;;;;;;;21.97;6.80;;;;;;;12.09;52.62;98688.66;8413608;28;20506;-81
2022/01/30 19:47:59;;;;;;;26.87;7.03;;;;;;;11.73;38.83;98671.78;8413207;28;20246;-81
2022/01/30 19:52:02;;;;;;;22.27;6.87;;;;;;;10.50;39.44;98676.09;8413632;28;20591;-82